sensor_id;sensor_type;location;lat;lon;timestamp;temperature;humidity
20174;DHT22;10246;50.620;7.232;2023-03-26T00:00:38;11.30;1.00
20174;DHT22;10246;50.620;7.232;2023-03-26T00:03:08;11.30;1.00
20174;DHT22;10246;50.620;7.232;2023-03-26T00:05:36;11.30;1.00
20174;DHT22;10246;50.620;7.232;2023-03-26T00:08:03;11.20;1.00
20174;DHT22;10246;50.620;7.232;2023-03-26T00:10:30;11.10;1.00
20174;DHT22;10246;50.620;7.232;2023-03-26T00:12:58;11.10;1.00
20174;DHT22;10246;50.620;7.232;2023-03-26T00:15:25;11.10;1.00
20174;DHT22;10246;50.620;7.232;2023-03-26T00:17:52;11.10;1.00
20174;DHT22;10246;50.620;7.232;2023-03-26T00:20:21;11.10;1.00
20174;DHT22;10246;50.620;7.232;2023-03-26T00:22:48;11.10;1.00
20174;DHT22;10246;50.620;7.232;2023-03-26T00:25:16;11.10;1.00
20174;DHT22;10246;50.620;7.232;2023-03-26T00:27:43;11.00;1.00
20174;DHT22;10246;50.620;7.232;2023-03-26T00:30:12;11.10;1.00
20174;DHT22;10246;50.620;7.232;2023-03-26T00:32:39;11.10;1.00
20174;DHT22;10246;50.620;7.232;2023-03-26T00:35:07;11.10;1.00
20174;DHT22;10246;50.620;7.232;2023-03-26T00:37:34;11.10;1.00
20174;DHT22;10246;50.620;7.232;2023-03-26T00:40:00;11.00;1.00
20174;DHT22;10246;50.620;7.232;2023-03-26T00:42:32;11.00;1.00
20174;DHT22;10246;50.620;7.232;2023-03-26T00:44:59;11.00;1.00
20174;DHT22;10246;50.620;7.232;2023-03-26T00:47:28;11.00;1.00
20174;DHT22;10246;50.620;7.232;2023-03-26T00:49:55;11.00;1.00
20174;DHT22;10246;50.620;7.232;2023-03-26T00:52:22;10.90;1.00
20174;DHT22;10246;50.620;7.232;2023-03-26T00:54:50;10.80;1.00
20174;DHT22;10246;50.620;7.232;2023-03-26T00:57:18;10.80;1.00
20174;DHT22;10246;50.620;7.232;2023-03-26T00:59:46;10.80;1.00
20174;DHT22;10246;50.620;7.232;2023-03-26T01:02:14;10.80;1.00
20174;DHT22;10246;50.620;7.232;2023-03-26T01:04:46;10.70;1.00
20174;DHT22;10246;50.620;7.232;2023-03-26T01:07:15;10.70;1.00
20174;DHT22;10246;50.620;7.232;2023-03-26T01:09:48;10.70;1.00
20174;DHT22;10246;50.620;7.232;2023-03-26T01:12:18;10.60;1.00
20174;DHT22;10246;50.620;7.232;2023-03-26T01:14:47;10.60;1.00
20174;DHT22;10246;50.620;7.232;2023-03-26T01:17:15;10.70;1.00
20174;DHT22;10246;50.620;7.232;2023-03-26T01:19:48;10.60;1.00
20174;DHT22;10246;50.620;7.232;2023-03-26T01:22:20;10.50;1.00
20174;DHT22;10246;50.620;7.232;2023-03-26T01:24:48;10.50;1.00
20174;DHT22;10246;50.620;7.232;2023-03-26T01:27:27;10.40;1.00
20174;DHT22;10246;50.620;7.232;2023-03-26T01:30:02;10.40;1.00
20174;DHT22;10246;50.620;7.232;2023-03-26T01:32:41;10.40;1.00
20174;DHT22;10246;50.620;7.232;2023-03-26T01:35:23;10.30;1.00
20174;DHT22;10246;50.620;7.232;2023-03-26T01:38:03;10.30;1.00
20174;DHT22;10246;50.620;7.232;2023-03-26T01:40:40;10.30;1.00
20174;DHT22;10246;50.620;7.232;2023-03-26T01:43:12;10.30;1.00
20174;DHT22;10246;50.620;7.232;2023-03-26T01:45:45;10.30;1.00
20174;DHT22;10246;50.620;7.232;2023-03-26T01:48:13;10.30;1.00
20174;DHT22;10246;50.620;7.232;2023-03-26T01:50:40;10.30;1.00
20174;DHT22;10246;50.620;7.232;2023-03-26T01:53:07;10.20;1.00
20174;DHT22;10246;50.620;7.232;2023-03-26T01:55:41;10.20;1.00
20174;DHT22;10246;50.620;7.232;2023-03-26T01:58:19;10.20;1.00
20174;DHT22;10246;50.620;7.232;2023-03-26T02:00:55;10.20;1.00
20174;DHT22;10246;50.620;7.232;2023-03-26T02:03:29;10.20;1.00
20174;DHT22;10246;50.620;7.232;2023-03-26T02:06:01;10.20;1.00
20174;DHT22;10246;50.620;7.232;2023-03-26T02:08:34;10.20;1.00
20174;DHT22;10246;50.620;7.232;2023-03-26T02:11:05;10.20;1.00
20174;DHT22;10246;50.620;7.232;2023-03-26T02:13:36;10.10;1.00
20174;DHT22;10246;50.620;7.232;2023-03-26T02:16:05;10.20;1.00
20174;DHT22;10246;50.620;7.232;2023-03-26T02:18:32;10.20;1.00
20174;DHT22;10246;50.620;7.232;2023-03-26T02:21:05;10.30;1.00
20174;DHT22;10246;50.620;7.232;2023-03-26T02:23:34;10.30;1.00
20174;DHT22;10246;50.620;7.232;2023-03-26T02:26:05;10.30;1.00
20174;DHT22;10246;50.620;7.232;2023-03-26T02:28:33;10.30;1.00
20174;DHT22;10246;50.620;7.232;2023-03-26T02:30:59;10.30;1.00
20174;DHT22;10246;50.620;7.232;2023-03-26T02:33:27;10.30;1.00
20174;DHT22;10246;50.620;7.232;2023-03-26T02:35:54;10.30;1.00
20174;DHT22;10246;50.620;7.232;2023-03-26T02:38:24;10.40;1.00
20174;DHT22;10246;50.620;7.232;2023-03-26T02:40:51;10.40;1.00
20174;DHT22;10246;50.620;7.232;2023-03-26T02:43:19;10.40;1.00
20174;DHT22;10246;50.620;7.232;2023-03-26T02:45:46;10.50;1.00
20174;DHT22;10246;50.620;7.232;2023-03-26T02:48:13;10.50;1.00
20174;DHT22;10246;50.620;7.232;2023-03-26T02:50:40;10.50;1.00
20174;DHT22;10246;50.620;7.232;2023-03-26T02:53:07;10.50;1.00
20174;DHT22;10246;50.620;7.232;2023-03-26T02:55:34;10.40;1.00
20174;DHT22;10246;50.620;7.232;2023-03-26T02:58:00;10.50;1.00
20174;DHT22;10246;50.620;7.232;2023-03-26T03:00:29;10.50;1.00
20174;DHT22;10246;50.620;7.232;2023-03-26T03:02:55;10.50;1.00
20174;DHT22;10246;50.620;7.232;2023-03-26T03:05:24;10.60;1.00
20174;DHT22;10246;50.620;7.232;2023-03-26T03:07:51;10.60;1.00
20174;DHT22;10246;50.620;7.232;2023-03-26T03:10:23;10.60;1.00
20174;DHT22;10246;50.620;7.232;2023-03-26T03:12:50;10.60;1.00
20174;DHT22;10246;50.620;7.232;2023-03-26T03:15:16;10.50;1.00
20174;DHT22;10246;50.620;7.232;2023-03-26T03:17:44;10.50;1.00
20174;DHT22;10246;50.620;7.232;2023-03-26T03:20:12;10.50;1.00
20174;DHT22;10246;50.620;7.232;2023-03-26T03:22:39;10.50;1.00
20174;DHT22;10246;50.620;7.232;2023-03-26T03:25:07;10.50;1.00
20174;DHT22;10246;50.620;7.232;2023-03-26T03:27:39;10.50;1.00
20174;DHT22;10246;50.620;7.232;2023-03-26T03:30:08;10.50;1.00
20174;DHT22;10246;50.620;7.232;2023-03-26T03:32:36;10.50;1.00
20174;DHT22;10246;50.620;7.232;2023-03-26T03:35:05;10.50;1.00
20174;DHT22;10246;50.620;7.232;2023-03-26T03:37:32;10.50;1.00
20174;DHT22;10246;50.620;7.232;2023-03-26T03:39:58;10.50;1.00
20174;DHT22;10246;50.620;7.232;2023-03-26T03:42:25;10.50;1.00
20174;DHT22;10246;50.620;7.232;2023-03-26T03:44:52;10.50;1.00
20174;DHT22;10246;50.620;7.232;2023-03-26T03:47:19;10.50;1.00
20174;DHT22;10246;50.620;7.232;2023-03-26T03:49:47;10.50;1.00
20174;DHT22;10246;50.620;7.232;2023-03-26T03:52:15;10.50;1.00
20174;DHT22;10246;50.620;7.232;2023-03-26T03:54:42;10.50;1.00
20174;DHT22;10246;50.620;7.232;2023-03-26T03:57:09;10.40;1.00
20174;DHT22;10246;50.620;7.232;2023-03-26T03:59:36;10.40;1.00
20174;DHT22;10246;50.620;7.232;2023-03-26T04:02:03;10.40;1.00
20174;DHT22;10246;50.620;7.232;2023-03-26T04:04:29;10.40;1.00
20174;DHT22;10246;50.620;7.232;2023-03-26T04:06:57;10.30;1.00
20174;DHT22;10246;50.620;7.232;2023-03-26T04:09:25;10.30;1.00
20174;DHT22;10246;50.620;7.232;2023-03-26T04:11:51;10.30;1.00
20174;DHT22;10246;50.620;7.232;2023-03-26T04:14:18;10.30;1.00
20174;DHT22;10246;50.620;7.232;2023-03-26T04:16:45;10.30;1.00
20174;DHT22;10246;50.620;7.232;2023-03-26T04:19:13;10.30;1.00
20174;DHT22;10246;50.620;7.232;2023-03-26T04:21:40;10.30;1.00
20174;DHT22;10246;50.620;7.232;2023-03-26T04:24:07;10.20;1.00
20174;DHT22;10246;50.620;7.232;2023-03-26T04:26:36;10.20;1.00
20174;DHT22;10246;50.620;7.232;2023-03-26T04:29:05;10.10;1.00
20174;DHT22;10246;50.620;7.232;2023-03-26T04:31:36;10.10;1.00
20174;DHT22;10246;50.620;7.232;2023-03-26T04:34:06;10.10;1.00
20174;DHT22;10246;50.620;7.232;2023-03-26T04:36:39;10.10;1.00
20174;DHT22;10246;50.620;7.232;2023-03-26T04:39:10;10.10;1.00
20174;DHT22;10246;50.620;7.232;2023-03-26T04:41:39;10.10;1.00
20174;DHT22;10246;50.620;7.232;2023-03-26T04:44:06;10.10;1.00
20174;DHT22;10246;50.620;7.232;2023-03-26T04:46:33;10.00;1.00
20174;DHT22;10246;50.620;7.232;2023-03-26T04:49:00;10.00;1.00
20174;DHT22;10246;50.620;7.232;2023-03-26T04:51:32;10.00;1.00
20174;DHT22;10246;50.620;7.232;2023-03-26T04:54:03;10.10;1.00
20174;DHT22;10246;50.620;7.232;2023-03-26T04:56:38;10.10;1.00
20174;DHT22;10246;50.620;7.232;2023-03-26T04:59:09;10.10;1.00
20174;DHT22;10246;50.620;7.232;2023-03-26T05:01:38;10.10;1.00
20174;DHT22;10246;50.620;7.232;2023-03-26T05:04:05;10.10;1.00
20174;DHT22;10246;50.620;7.232;2023-03-26T05:06:32;10.00;1.00
20174;DHT22;10246;50.620;7.232;2023-03-26T05:08:58;10.00;1.00
20174;DHT22;10246;50.620;7.232;2023-03-26T05:11:26;10.10;1.00
20174;DHT22;10246;50.620;7.232;2023-03-26T05:13:52;10.10;1.00
20174;DHT22;10246;50.620;7.232;2023-03-26T05:16:23;10.10;1.00
20174;DHT22;10246;50.620;7.232;2023-03-26T05:18:50;10.10;1.00
20174;DHT22;10246;50.620;7.232;2023-03-26T05:21:17;10.10;1.00
20174;DHT22;10246;50.620;7.232;2023-03-26T05:23:43;10.00;1.00
20174;DHT22;10246;50.620;7.232;2023-03-26T05:26:10;10.00;1.00
20174;DHT22;10246;50.620;7.232;2023-03-26T05:28:37;9.90;2.30
20174;DHT22;10246;50.620;7.232;2023-03-26T05:31:04;9.80;2.90
20174;DHT22;10246;50.620;7.232;2023-03-26T05:33:33;9.80;2.80
20174;DHT22;10246;50.620;7.232;2023-03-26T05:36:00;9.80;3.30
20174;DHT22;10246;50.620;7.232;2023-03-26T05:38:27;9.80;3.20
20174;DHT22;10246;50.620;7.232;2023-03-26T05:40:57;9.80;3.40
20174;DHT22;10246;50.620;7.232;2023-03-26T05:43:25;9.80;3.80
20174;DHT22;10246;50.620;7.232;2023-03-26T05:45:52;9.80;3.70
20174;DHT22;10246;50.620;7.232;2023-03-26T05:48:19;9.80;3.50
20174;DHT22;10246;50.620;7.232;2023-03-26T05:50:48;9.90;3.70
20174;DHT22;10246;50.620;7.232;2023-03-26T05:53:15;9.90;3.90
20174;DHT22;10246;50.620;7.232;2023-03-26T05:55:42;9.90;3.90
20174;DHT22;10246;50.620;7.232;2023-03-26T05:58:10;9.90;4.30
20174;DHT22;10246;50.620;7.232;2023-03-26T06:00:37;9.90;5.40
20174;DHT22;10246;50.620;7.232;2023-03-26T06:03:04;9.90;5.50
20174;DHT22;10246;50.620;7.232;2023-03-26T06:05:37;9.80;6.50
20174;DHT22;10246;50.620;7.232;2023-03-26T06:08:06;9.80;6.50
20174;DHT22;10246;50.620;7.232;2023-03-26T06:10:32;9.80;7.10
20174;DHT22;10246;50.620;7.232;2023-03-26T06:13:02;9.80;7.70
20174;DHT22;10246;50.620;7.232;2023-03-26T06:15:29;9.80;8.10
20174;DHT22;10246;50.620;7.232;2023-03-26T06:17:55;9.80;8.60
20174;DHT22;10246;50.620;7.232;2023-03-26T06:20:22;9.70;8.60
20174;DHT22;10246;50.620;7.232;2023-03-26T06:22:49;9.70;9.10
20174;DHT22;10246;50.620;7.232;2023-03-26T06:25:17;9.80;9.10
20174;DHT22;10246;50.620;7.232;2023-03-26T06:27:44;9.80;8.90
20174;DHT22;10246;50.620;7.232;2023-03-26T06:30:11;9.80;8.90
20174;DHT22;10246;50.620;7.232;2023-03-26T06:32:38;9.80;9.10
20174;DHT22;10246;50.620;7.232;2023-03-26T06:35:05;9.70;9.40
20174;DHT22;10246;50.620;7.232;2023-03-26T06:37:32;9.70;10.00
20174;DHT22;10246;50.620;7.232;2023-03-26T06:39:59;9.70;9.80
20174;DHT22;10246;50.620;7.232;2023-03-26T06:42:27;9.70;10.20
20174;DHT22;10246;50.620;7.232;2023-03-26T06:44:53;9.70;10.10
20174;DHT22;10246;50.620;7.232;2023-03-26T06:47:20;9.70;10.40
20174;DHT22;10246;50.620;7.232;2023-03-26T06:49:47;9.70;10.50
20174;DHT22;10246;50.620;7.232;2023-03-26T06:52:13;9.70;11.10
20174;DHT22;10246;50.620;7.232;2023-03-26T06:54:40;9.60;11.00
20174;DHT22;10246;50.620;7.232;2023-03-26T06:57:07;9.70;11.20
20174;DHT22;10246;50.620;7.232;2023-03-26T06:59:35;9.60;11.70
20174;DHT22;10246;50.620;7.232;2023-03-26T07:02:03;9.60;11.00
20174;DHT22;10246;50.620;7.232;2023-03-26T07:04:29;9.60;12.70
20174;DHT22;10246;50.620;7.232;2023-03-26T07:06:56;9.70;12.40
20174;DHT22;10246;50.620;7.232;2023-03-26T07:09:23;9.70;12.20
20174;DHT22;10246;50.620;7.232;2023-03-26T07:11:50;9.80;12.60
20174;DHT22;10246;50.620;7.232;2023-03-26T07:14:17;9.80;12.60
20174;DHT22;10246;50.620;7.232;2023-03-26T07:16:45;9.80;12.10
20174;DHT22;10246;50.620;7.232;2023-03-26T07:19:12;9.70;12.80
20174;DHT22;10246;50.620;7.232;2023-03-26T07:21:39;9.70;12.80
20174;DHT22;10246;50.620;7.232;2023-03-26T07:24:09;9.70;13.50
20174;DHT22;10246;50.620;7.232;2023-03-26T07:26:43;9.70;13.90
20174;DHT22;10246;50.620;7.232;2023-03-26T07:29:19;9.70;13.30
20174;DHT22;10246;50.620;7.232;2023-03-26T07:31:59;9.70;12.80
20174;DHT22;10246;50.620;7.232;2023-03-26T07:34:41;9.70;13.10
20174;DHT22;10246;50.620;7.232;2023-03-26T07:37:18;9.80;13.50
20174;DHT22;10246;50.620;7.232;2023-03-26T07:39:52;9.80;12.90
20174;DHT22;10246;50.620;7.232;2023-03-26T07:42:33;9.80;12.30
20174;DHT22;10246;50.620;7.232;2023-03-26T07:45:11;9.80;13.20
20174;DHT22;10246;50.620;7.232;2023-03-26T07:47:42;9.80;12.90
20174;DHT22;10246;50.620;7.232;2023-03-26T07:50:15;9.80;12.90
20174;DHT22;10246;50.620;7.232;2023-03-26T07:52:43;9.80;13.10
20174;DHT22;10246;50.620;7.232;2023-03-26T07:55:12;9.80;12.90
20174;DHT22;10246;50.620;7.232;2023-03-26T07:57:48;9.80;12.90
20174;DHT22;10246;50.620;7.232;2023-03-26T08:00:21;9.80;12.90
20174;DHT22;10246;50.620;7.232;2023-03-26T08:03:32;9.80;12.80
20174;DHT22;10246;50.620;7.232;2023-03-26T08:06:14;9.80;12.90
20174;DHT22;10246;50.620;7.232;2023-03-26T08:08:49;9.80;12.90
20174;DHT22;10246;50.620;7.232;2023-03-26T08:11:30;9.70;13.40
20174;DHT22;10246;50.620;7.232;2023-03-26T08:14:04;9.70;13.60
20174;DHT22;10246;50.620;7.232;2023-03-26T08:16:36;9.70;13.60
20174;DHT22;10246;50.620;7.232;2023-03-26T08:19:21;9.70;14.10
20174;DHT22;10246;50.620;7.232;2023-03-26T08:21:54;9.70;13.10
20174;DHT22;10246;50.620;7.232;2023-03-26T08:24:30;9.70;12.80
20174;DHT22;10246;50.620;7.232;2023-03-26T08:27:05;9.70;11.90
20174;DHT22;10246;50.620;7.232;2023-03-26T08:29:45;9.50;11.90
20174;DHT22;10246;50.620;7.232;2023-03-26T08:32:22;9.60;12.10
20174;DHT22;10246;50.620;7.232;2023-03-26T08:34:50;9.60;12.40
20174;DHT22;10246;50.620;7.232;2023-03-26T08:37:21;9.60;11.60
20174;DHT22;10246;50.620;7.232;2023-03-26T08:39:49;9.70;11.90
20174;DHT22;10246;50.620;7.232;2023-03-26T08:42:42;9.70;11.50
20174;DHT22;10246;50.620;7.232;2023-03-26T08:45:53;9.70;11.50
20174;DHT22;10246;50.620;7.232;2023-03-26T08:48:52;9.80;12.00
20174;DHT22;10246;50.620;7.232;2023-03-26T08:51:57;9.70;11.00
20174;DHT22;10246;50.620;7.232;2023-03-26T08:54:46;9.70;11.60
20174;DHT22;10246;50.620;7.232;2023-03-26T09:00:48;9.70;10.00
20174;DHT22;10246;50.620;7.232;2023-03-26T09:03:46;9.70;11.00
20174;DHT22;10246;50.620;7.232;2023-03-26T09:06:51;9.80;11.00
20174;DHT22;10246;50.620;7.232;2023-03-26T09:09:45;9.80;10.80
20174;DHT22;10246;50.620;7.232;2023-03-26T09:12:41;9.80;10.30
20174;DHT22;10246;50.620;7.232;2023-03-26T09:15:26;9.80;9.70
20174;DHT22;10246;50.620;7.232;2023-03-26T09:27:05;9.80;11.30
20174;DHT22;10246;50.620;7.232;2023-03-26T09:29:54;9.80;10.90
20174;DHT22;10246;50.620;7.232;2023-03-26T09:35:50;9.80;11.50
20174;DHT22;10246;50.620;7.232;2023-03-26T09:38:41;9.90;10.20
20174;DHT22;10246;50.620;7.232;2023-03-26T09:41:14;9.90;10.80
20174;DHT22;10246;50.620;7.232;2023-03-26T09:46:54;10.10;10.10
20174;DHT22;10246;50.620;7.232;2023-03-26T09:49:37;10.10;10.90
20174;DHT22;10246;50.620;7.232;2023-03-26T09:52:26;10.30;9.90
20174;DHT22;10246;50.620;7.232;2023-03-26T09:55:26;10.50;8.50
20174;DHT22;10246;50.620;7.232;2023-03-26T09:58:36;10.70;8.90
20174;DHT22;10246;50.620;7.232;2023-03-26T10:01:14;10.70;7.50
20174;DHT22;10246;50.620;7.232;2023-03-26T10:04:00;10.80;7.00
20174;DHT22;10246;50.620;7.232;2023-03-26T10:06:35;10.80;6.40
20174;DHT22;10246;50.620;7.232;2023-03-26T10:09:13;10.80;5.70
20174;DHT22;10246;50.620;7.232;2023-03-26T10:14:39;10.70;5.70
20174;DHT22;10246;50.620;7.232;2023-03-26T10:17:20;10.70;4.90
20174;DHT22;10246;50.620;7.232;2023-03-26T10:20:01;10.70;5.10
20174;DHT22;10246;50.620;7.232;2023-03-26T10:22:42;10.60;4.80
20174;DHT22;10246;50.620;7.232;2023-03-26T10:25:26;10.60;6.30
20174;DHT22;10246;50.620;7.232;2023-03-26T10:28:08;10.60;5.70
20174;DHT22;10246;50.620;7.232;2023-03-26T10:30:47;10.60;6.10
20174;DHT22;10246;50.620;7.232;2023-03-26T10:33:29;10.70;7.80
20174;DHT22;10246;50.620;7.232;2023-03-26T10:36:26;10.70;6.70
20174;DHT22;10246;50.620;7.232;2023-03-26T10:39:16;10.60;5.90
20174;DHT22;10246;50.620;7.232;2023-03-26T10:41:54;10.70;6.10
20174;DHT22;10246;50.620;7.232;2023-03-26T10:44:54;10.60;5.90
20174;DHT22;10246;50.620;7.232;2023-03-26T10:50:25;10.60;6.90
20174;DHT22;10246;50.620;7.232;2023-03-26T10:53:08;10.60;7.90
20174;DHT22;10246;50.620;7.232;2023-03-26T10:55:39;10.60;7.40
20174;DHT22;10246;50.620;7.232;2023-03-26T10:58:15;10.60;9.30
20174;DHT22;10246;50.620;7.232;2023-03-26T11:00:53;10.60;10.00
20174;DHT22;10246;50.620;7.232;2023-03-26T11:03:42;10.50;10.00
20174;DHT22;10246;50.620;7.232;2023-03-26T11:06:29;10.50;11.00
20174;DHT22;10246;50.620;7.232;2023-03-26T11:09:20;10.60;10.90
20174;DHT22;10246;50.620;7.232;2023-03-26T11:11:55;10.60;9.50
20174;DHT22;10246;50.620;7.232;2023-03-26T11:14:27;10.70;9.90
20174;DHT22;10246;50.620;7.232;2023-03-26T11:17:03;10.80;9.40
20174;DHT22;10246;50.620;7.232;2023-03-26T11:19:37;10.80;9.10
20174;DHT22;10246;50.620;7.232;2023-03-26T11:22:14;10.90;7.50
20174;DHT22;10246;50.620;7.232;2023-03-26T11:25:05;10.90;7.00
20174;DHT22;10246;50.620;7.232;2023-03-26T11:27:48;10.80;6.90
20174;DHT22;10246;50.620;7.232;2023-03-26T11:30:25;10.90;7.00
20174;DHT22;10246;50.620;7.232;2023-03-26T11:32:56;10.90;5.60
20174;DHT22;10246;50.620;7.232;2023-03-26T11:35:29;10.80;7.00
20174;DHT22;10246;50.620;7.232;2023-03-26T11:38:01;10.80;6.90
20174;DHT22;10246;50.620;7.232;2023-03-26T11:40:34;10.80;6.80
20174;DHT22;10246;50.620;7.232;2023-03-26T11:43:06;10.80;7.50
20174;DHT22;10246;50.620;7.232;2023-03-26T11:45:35;10.80;7.30
20174;DHT22;10246;50.620;7.232;2023-03-26T11:48:09;10.70;8.20
20174;DHT22;10246;50.620;7.232;2023-03-26T11:50:43;10.70;9.30
20174;DHT22;10246;50.620;7.232;2023-03-26T11:53:13;10.50;10.20
20174;DHT22;10246;50.620;7.232;2023-03-26T11:55:47;10.50;10.70
20174;DHT22;10246;50.620;7.232;2023-03-26T11:58:26;10.50;11.20
20174;DHT22;10246;50.620;7.232;2023-03-26T12:00:55;10.60;12.00
20174;DHT22;10246;50.620;7.232;2023-03-26T12:03:23;10.50;11.60
20174;DHT22;10246;50.620;7.232;2023-03-26T12:05:57;10.50;12.00
20174;DHT22;10246;50.620;7.232;2023-03-26T12:08:29;10.60;12.70
20174;DHT22;10246;50.620;7.232;2023-03-26T12:11:03;10.50;12.60
20174;DHT22;10246;50.620;7.232;2023-03-26T12:13:34;10.50;15.10
20174;DHT22;10246;50.620;7.232;2023-03-26T12:16:11;10.50;13.60
20174;DHT22;10246;50.620;7.232;2023-03-26T12:18:40;10.50;12.70
20174;DHT22;10246;50.620;7.232;2023-03-26T12:21:13;10.50;13.10
20174;DHT22;10246;50.620;7.232;2023-03-26T12:23:52;10.50;12.50
20174;DHT22;10246;50.620;7.232;2023-03-26T12:26:29;10.40;12.60
20174;DHT22;10246;50.620;7.232;2023-03-26T12:29:05;10.40;13.30
20174;DHT22;10246;50.620;7.232;2023-03-26T12:31:41;10.40;9.20
20174;DHT22;10246;50.620;7.232;2023-03-26T12:34:14;10.40;9.50
20174;DHT22;10246;50.620;7.232;2023-03-26T12:36:47;10.40;10.00
20174;DHT22;10246;50.620;7.232;2023-03-26T12:39:36;10.40;8.80
20174;DHT22;10246;50.620;7.232;2023-03-26T12:42:05;10.40;7.30
20174;DHT22;10246;50.620;7.232;2023-03-26T12:44:46;10.50;5.60
20174;DHT22;10246;50.620;7.232;2023-03-26T12:47:18;10.40;3.20
20174;DHT22;10246;50.620;7.232;2023-03-26T12:49:48;10.40;3.80
20174;DHT22;10246;50.620;7.232;2023-03-26T12:52:40;10.30;5.70
20174;DHT22;10246;50.620;7.232;2023-03-26T12:55:19;10.40;4.50
20174;DHT22;10246;50.620;7.232;2023-03-26T12:57:56;10.40;6.90
20174;DHT22;10246;50.620;7.232;2023-03-26T13:00:37;10.40;4.80
20174;DHT22;10246;50.620;7.232;2023-03-26T13:03:34;10.50;4.30
20174;DHT22;10246;50.620;7.232;2023-03-26T13:06:21;10.50;4.40
20174;DHT22;10246;50.620;7.232;2023-03-26T13:09:20;10.50;5.10
20174;DHT22;10246;50.620;7.232;2023-03-26T13:12:03;10.60;4.90
20174;DHT22;10246;50.620;7.232;2023-03-26T13:14:47;10.60;5.90
20174;DHT22;10246;50.620;7.232;2023-03-26T13:17:27;10.60;6.80
20174;DHT22;10246;50.620;7.232;2023-03-26T13:20:00;10.60;6.40
20174;DHT22;10246;50.620;7.232;2023-03-26T13:22:44;10.50;5.80
20174;DHT22;10246;50.620;7.232;2023-03-26T13:25:25;10.50;6.40
20174;DHT22;10246;50.620;7.232;2023-03-26T13:28:02;10.60;7.00
20174;DHT22;10246;50.620;7.232;2023-03-26T13:30:37;10.60;6.30
20174;DHT22;10246;50.620;7.232;2023-03-26T13:33:24;10.60;5.90
20174;DHT22;10246;50.620;7.232;2023-03-26T13:35:57;10.70;5.50
20174;DHT22;10246;50.620;7.232;2023-03-26T13:38:35;10.70;7.70
20174;DHT22;10246;50.620;7.232;2023-03-26T13:41:17;10.70;5.90
20174;DHT22;10246;50.620;7.232;2023-03-26T13:44:04;10.80;8.00
20174;DHT22;10246;50.620;7.232;2023-03-26T13:46:41;10.80;9.00
20174;DHT22;10246;50.620;7.232;2023-03-26T13:49:12;10.80;7.30
20174;DHT22;10246;50.620;7.232;2023-03-26T13:51:43;10.80;7.80
20174;DHT22;10246;50.620;7.232;2023-03-26T13:54:17;10.80;4.70
20174;DHT22;10246;50.620;7.232;2023-03-26T13:56:51;10.80;7.00
20174;DHT22;10246;50.620;7.232;2023-03-26T13:59:27;10.80;7.20
20174;DHT22;10246;50.620;7.232;2023-03-26T14:01:59;10.80;8.80
20174;DHT22;10246;50.620;7.232;2023-03-26T14:04:32;10.90;9.00
20174;DHT22;10246;50.620;7.232;2023-03-26T14:07:04;10.90;6.80
20174;DHT22;10246;50.620;7.232;2023-03-26T14:09:39;10.90;6.10
20174;DHT22;10246;50.620;7.232;2023-03-26T14:12:31;10.90;7.40
20174;DHT22;10246;50.620;7.232;2023-03-26T14:15:01;10.80;7.50
20174;DHT22;10246;50.620;7.232;2023-03-26T14:17:33;10.90;7.60
20174;DHT22;10246;50.620;7.232;2023-03-26T14:20:22;10.90;6.90
20174;DHT22;10246;50.620;7.232;2023-03-26T14:23:06;10.90;6.10
20174;DHT22;10246;50.620;7.232;2023-03-26T14:25:52;10.80;7.40
20174;DHT22;10246;50.620;7.232;2023-03-26T14:28:50;10.70;7.80
20174;DHT22;10246;50.620;7.232;2023-03-26T14:31:26;10.70;7.50
20174;DHT22;10246;50.620;7.232;2023-03-26T14:34:10;10.70;7.50
20174;DHT22;10246;50.620;7.232;2023-03-26T14:37:04;10.70;6.90
20174;DHT22;10246;50.620;7.232;2023-03-26T14:39:59;10.70;7.20
20174;DHT22;10246;50.620;7.232;2023-03-26T14:42:37;10.70;8.60
20174;DHT22;10246;50.620;7.232;2023-03-26T14:45:50;10.80;10.10
20174;DHT22;10246;50.620;7.232;2023-03-26T14:48:47;10.80;9.20
20174;DHT22;10246;50.620;7.232;2023-03-26T14:51:27;11.00;8.80
20174;DHT22;10246;50.620;7.232;2023-03-26T14:54:04;11.00;7.00
20174;DHT22;10246;50.620;7.232;2023-03-26T14:56:52;11.00;9.20
20174;DHT22;10246;50.620;7.232;2023-03-26T15:00:01;11.00;5.30
20174;DHT22;10246;50.620;7.232;2023-03-26T15:03:19;11.00;6.70
20174;DHT22;10246;50.620;7.232;2023-03-26T15:06:32;10.90;5.40
20174;DHT22;10246;50.620;7.232;2023-03-26T15:09:36;10.80;7.10
20174;DHT22;10246;50.620;7.232;2023-03-26T15:12:23;10.70;6.30
20174;DHT22;10246;50.620;7.232;2023-03-26T15:25:09;10.60;12.20
20174;DHT22;10246;50.620;7.232;2023-03-26T15:34:09;10.70;11.50
20174;DHT22;10246;50.620;7.232;2023-03-26T15:37:24;10.70;12.00
20174;DHT22;10246;50.620;7.232;2023-03-26T15:40:29;10.80;10.90
20174;DHT22;10246;50.620;7.232;2023-03-26T15:43:11;10.70;10.90
20174;DHT22;10246;50.620;7.232;2023-03-26T15:45:44;10.70;12.70
20174;DHT22;10246;50.620;7.232;2023-03-26T15:48:49;10.70;13.20
20174;DHT22;10246;50.620;7.232;2023-03-26T15:51:30;10.80;12.80
20174;DHT22;10246;50.620;7.232;2023-03-26T15:54:02;10.70;13.90
20174;DHT22;10246;50.620;7.232;2023-03-26T15:56:58;10.80;14.10
20174;DHT22;10246;50.620;7.232;2023-03-26T15:59:40;10.90;12.90
20174;DHT22;10246;50.620;7.232;2023-03-26T16:02:20;10.80;12.90
20174;DHT22;10246;50.620;7.232;2023-03-26T16:04:51;10.70;13.40
20174;DHT22;10246;50.620;7.232;2023-03-26T16:07:35;10.70;13.70
20174;DHT22;10246;50.620;7.232;2023-03-26T16:10:24;10.90;12.90
20174;DHT22;10246;50.620;7.232;2023-03-26T16:13:22;10.70;13.80
20174;DHT22;10246;50.620;7.232;2023-03-26T16:15:52;10.70;15.20
20174;DHT22;10246;50.620;7.232;2023-03-26T16:18:29;10.70;15.00
20174;DHT22;10246;50.620;7.232;2023-03-26T16:24:21;10.60;13.60
20174;DHT22;10246;50.620;7.232;2023-03-26T16:27:03;10.60;13.90
20174;DHT22;10246;50.620;7.232;2023-03-26T16:32:52;10.60;12.80
20174;DHT22;10246;50.620;7.232;2023-03-26T16:35:59;10.60;12.70
20174;DHT22;10246;50.620;7.232;2023-03-26T16:38:46;10.50;14.30
20174;DHT22;10246;50.620;7.232;2023-03-26T16:41:18;10.50;15.60
20174;DHT22;10246;50.620;7.232;2023-03-26T16:43:53;10.50;13.50
20174;DHT22;10246;50.620;7.232;2023-03-26T16:46:51;10.50;13.30
20174;DHT22;10246;50.620;7.232;2023-03-26T16:49:43;10.50;13.80
20174;DHT22;10246;50.620;7.232;2023-03-26T16:52:22;10.50;13.60
20174;DHT22;10246;50.620;7.232;2023-03-26T16:55:00;10.40;13.40
20174;DHT22;10246;50.620;7.232;2023-03-26T16:57:36;10.40;12.50
20174;DHT22;10246;50.620;7.232;2023-03-26T17:03:26;10.20;8.00
20174;DHT22;10246;50.620;7.232;2023-03-26T17:06:04;10.00;8.10
20174;DHT22;10246;50.620;7.232;2023-03-26T17:08:39;9.90;9.40
20174;DHT22;10246;50.620;7.232;2023-03-26T17:11:18;10.00;8.40
20174;DHT22;10246;50.620;7.232;2023-03-26T17:13:54;10.00;7.80
20174;DHT22;10246;50.620;7.232;2023-03-26T17:16:32;9.90;8.10
20174;DHT22;10246;50.620;7.232;2023-03-26T17:19:09;9.90;9.20
20174;DHT22;10246;50.620;7.232;2023-03-26T17:21:46;9.90;9.00
20174;DHT22;10246;50.620;7.232;2023-03-26T17:24:26;9.90;9.90
20174;DHT22;10246;50.620;7.232;2023-03-26T17:26:59;9.80;8.80